Bryants Store, KY (40921)

2:37 AM EDT on April 21, 2015 (GMT -0400)
Mackey Bend | | Change Station
CLOSE
Current Station
Personal Weather Station
Location: Barbourville, KY
Elevation: 1020 ft
Nearby Weather Stations

Elev 1020 ft 36.81 °N, 83.96 °W | Updated 14 seconds ago

Overcast
Overcast
49.5 °F
Feels Like 49 °F
N
3.2
Wind Variable Wind from NNW
Gusts 3.7 mph

Today
High -- | Low -- °F
--% Chance of Precip.
Yesterday
High -- | Low -- °F
Precip. -- in
6:54 AM 8:15 PM
Waxing Crescent, 8% visible
Pressure 29.89 in
Visibility 10.0 miles
Clouds Mostly Cloudy 2900 ft
Mostly Cloudy 3700 ft
Overcast 8000 ft
Windchill 49 °F
Dew Point 46 °F
Humidity 89%
Rainfall 0.00 in
Snow Depth Not available.
UV 0 out of 12
Pollen 7.80 out of 12
Air Quality Not available.
Flu Activity Local Activity
METAR K1A6 210615Z AUTO 00000KT 10SM BKN029 BKN037 OVC080 09/09 A2989 RMK AO2 T00910085

More Conditions Fewer Conditions

Pressure 29.89 in
Visibility 10.0 miles
Clouds Mostly Cloudy 2900 ft
Mostly Cloudy 3700 ft
Overcast 8000 ft
Windchill 49 °F
Dew Point 46 °F
Humidity 89%
Rainfall 0.00 in
Snow Depth Not available.
UV 0 out of 12
Pollen 7.80 out of 12
Air Quality Not available.
Flu Activity Local Activity
METAR K1A6 210615Z AUTO 00000KT 10SM BKN029 BKN037 OVC080 09/09 A2989 RMK AO2 T00910085

More Conditions Fewer Conditions

10-Day Weather Forecast

Almanac

Astronomy

Apr. 21, 2015 Rise Set
Actual Time
Civil Twilight
Nautical Twilight
Astronomical Twilight
Moon
Length of Visible Light
Length of Day
Tomorrow will be .
, % of the Moon is Illuminated

Today's Extremes

State Highs State Lows

Community

WunderPhotos

Upload Photos

1,815,320 photos uploaded!

WunderBlogs® & News

Nearby

Air Quality

  Air Quality AQ Index Pollutant
Not available.

Snow Depth

Station Depth Elevation

Earthquake Activity

City Distance Mag. Time & Date
Minimum magnitude displayed is 2.5.

Coastal Water Temperatures

Place Temperature

Stations

Nearby Weather Stations

Station Location Temp. Windchill Dew Point Humidity Wind Precip. Elev Updated Type